Skip Navigation Links Skip Navigation Links

Current Weather

San Francisco International, San Francisco

For information only: do not use for flight planning or navigation.
Latest weather
Observation time Monday, March 19, 2018 2:56 AM PDT
Local time Monday, March 19, 2018 3:57 AM PDT
Flight conditions Visual Meteorological Conditions
Wind direction West (260°)
Wind speed 5 mph
Visibility 10 mi.
Sky condition
Ceiling unlimited
Cloud layer few clouds 15,000 ft.
Temperature 45°F
Dewpoint 40°F
Altimeter 30.16 in.Hg
Derived measurements
Relative humidity 82%
Wind chill 43°F
Density altitude -1077 ft.
Sea-level pressure 30.16 in.Hg
System requires maintenance.
Automated weather observing station with precipitation discriminator.
METAR KSFO 190956Z 26004KT 10SM FEW150 07/04 A3016 RMK AO2 SLP213 T00720044 $


Location code

InnerDrive.Weather 4.0.6615.0 Release CLR 4.0.30319.42000
Copyright ©2018 Inner Drive Technology. All rights reserved. Portions Copyright ©1986-2018 David Braverman.

Find weather

Site navigation

Skip Navigation Links

Place info

Page info

PayPal - The safer, easier way to pay online!

Return home.

Copyright ©2018 Inner Drive Technology. Purveyors of fine, hand-crafted computer software. Page printed 2018-03-19T10:57:03 UTC.